Time;durP1;ratioP1;P1;durP2;ratioP2;P2;SDS_P1;SDS_P2;PMS_P1;PMS_P2;Temp;Humidity;BMP_temperature;BMP_pressure;BME280_temperature;BME280_humidity;BME280_pressure;Samples;Min_cycle;Max_cycle;Signal;HPM_P1;HPM_P2
2021/01/17 00:00:55;;;;;;;18.35;9.75;;;-0.50;99.90;;;;;;5011244;28;20643;-82
2021/01/17 00:03:23;;;;;;;18.75;10.23;;;-0.50;99.90;;;;;;5013426;28;20293;-83
2021/01/17 00:05:50;;;;;;;13.90;9.10;;;-0.60;99.90;;;;;;5013409;28;20200;-82
2021/01/17 00:08:18;;;;;;;17.92;9.77;;;-0.60;99.90;;;;;;5013456;28;20633;-81
2021/01/17 00:10:44;;;;;;;16.42;10.57;;;-0.60;99.90;;;;;;5013303;28;20773;-80
2021/01/17 00:13:11;;;;;;;18.08;11.02;;;-0.60;99.90;;;;;;5013116;28;20298;-81
2021/01/17 00:15:37;;;;;;;21.88;11.68;;;-0.60;99.90;;;;;;5013018;28;20261;-81
2021/01/17 00:18:04;;;;;;;17.75;11.18;;;-0.70;99.90;;;;;;5012390;28;20294;-82
2021/01/17 00:20:32;;;;;;;20.15;11.45;;;-0.60;99.90;;;;;;5011969;28;20299;-81
2021/01/17 00:23:03;;;;;;;19.45;11.25;;;-0.60;99.90;;;;;;5013665;28;20611;-81
2021/01/17 00:25:29;;;;;;;19.30;10.23;;;-0.70;99.90;;;;;;5013544;28;20334;-81
2021/01/17 00:27:56;;;;;;;16.23;9.70;;;-0.80;99.90;;;;;;5013457;28;20298;-80
2021/01/17 00:30:25;;;;;;;18.52;10.57;;;-0.80;99.90;;;;;;5012837;28;20214;-81
2021/01/17 00:32:55;;;;;;;18.98;10.98;;;-0.80;99.90;;;;;;5011036;28;20203;-81
2021/01/17 00:35:22;;;;;;;14.80;10.48;;;-0.80;99.90;;;;;;5013295;28;20694;-81
2021/01/17 00:37:52;;;;;;;19.08;10.75;;;-0.80;99.90;;;;;;5013376;28;20695;-81
2021/01/17 00:40:19;;;;;;;18.20;9.52;;;-0.80;99.90;;;;;;5013098;28;20291;-79
2021/01/17 00:42:47;;;;;;;13.57;9.15;;;-0.80;99.90;;;;;;5012935;28;20765;-78
2021/01/17 00:45:14;;;;;;;23.10;11.13;;;-0.80;99.90;;;;;;5013082;28;20650;-77
2021/01/17 00:47:44;;;;;;;14.00;9.00;;;-0.80;99.90;;;;;;5011481;28;20203;-78
2021/01/17 00:50:12;;;;;;;15.15;10.32;;;-0.80;99.90;;;;;;5012868;28;20222;-78
2021/01/17 00:52:38;;;;;;;15.60;11.10;;;-0.70;99.90;;;;;;5012919;28;20290;-78
2021/01/17 00:55:08;;;;;;;15.00;10.70;;;-0.80;99.90;;;;;;5012894;28;20294;-78
2021/01/17 00:57:34;;;;;;;18.02;9.90;;;-0.80;99.90;;;;;;5012895;28;20273;-78
2021/01/17 01:00:00;;;;;;;16.52;9.70;;;-0.70;99.90;;;;;;5012950;28;20210;-78
2021/01/17 01:02:27;;;;;;;25.55;10.70;;;-0.70;99.90;;;;;;5011349;28;20294;-78
2021/01/17 01:04:53;;;;;;;19.20;8.70;;;-0.70;99.90;;;;;;5011515;28;20235;-78
2021/01/17 01:07:20;;;;;;;11.52;8.40;;;-0.70;99.90;;;;;;5012956;28;20200;-79
2021/01/17 01:09:49;;;;;;;13.32;8.30;;;-0.70;99.90;;;;;;5014263;28;20613;-79
2021/01/17 01:12:17;;;;;;;16.33;8.27;;;-0.80;99.90;;;;;;5014209;28;20238;-79
2021/01/17 01:14:45;;;;;;;14.45;9.63;;;-0.80;99.90;;;;;;5016185;28;20207;-80
2021/01/17 01:17:11;;;;;;;21.13;11.68;;;-0.80;99.90;;;;;;5021263;28;20294;-79
2021/01/17 01:19:37;;;;;;;13.02;8.90;;;-0.80;99.90;;;;;;5022486;28;20234;-80
2021/01/17 01:22:04;;;;;;;16.30;10.55;;;-0.90;99.90;;;;;;5034337;28;20192;-80
2021/01/17 01:24:31;;;;;;;12.38;8.98;;;-0.90;99.90;;;;;;5035488;28;20204;-81
2021/01/17 01:26:58;;;;;;;11.18;7.32;;;-0.90;99.90;;;;;;5021102;28;20343;-81
2021/01/17 01:29:25;;;;;;;18.77;9.57;;;-0.80;99.90;;;;;;5028199;28;20254;-82
2021/01/17 01:31:52;;;;;;;18.55;10.75;;;-0.80;99.90;;;;;;5038854;28;20246;-81
2021/01/17 01:34:18;;;;;;;11.30;8.95;;;-0.80;99.90;;;;;;5040277;28;20195;-82
2021/01/17 01:36:45;;;;;;;18.52;10.57;;;-0.80;99.90;;;;;;5026665;28;20208;-82
2021/01/17 01:39:12;;;;;;;14.43;9.25;;;-0.80;99.90;;;;;;5018932;28;20637;-83
2021/01/17 01:41:41;;;;;;;15.40;7.88;;;-0.80;99.90;;;;;;5017152;28;20279;-82
2021/01/17 01:44:08;;;;;;;19.55;8.95;;;-0.90;99.90;;;;;;4994348;28;20299;-83
2021/01/17 01:46:40;;;;;;;19.83;10.85;;;-0.90;99.90;;;;;;4993338;28;20304;-81
2021/01/17 01:49:07;;;;;;;14.10;8.10;;;-0.80;99.90;;;;;;4994336;28;20228;-82
2021/01/17 01:51:34;;;;;;;11.82;8.30;;;-0.90;99.90;;;;;;4993786;28;20327;-81
2021/01/17 01:54:00;;;;;;;15.30;8.52;;;-0.80;99.90;;;;;;4993998;28;20295;-80
2021/01/17 01:56:27;;;;;;;15.43;8.68;;;-0.80;99.90;;;;;;4993972;28;20248;-79
2021/01/17 01:58:55;;;;;;;12.70;8.48;;;-0.80;99.90;;;;;;4993963;28;20377;-79
2021/01/17 02:01:21;;;;;;;14.60;8.77;;;-0.80;99.90;;;;;;4995038;28;20343;-80
2021/01/17 02:03:50;;;;;;;14.50;8.63;;;-0.80;99.90;;;;;;5015603;28;20668;-81
2021/01/17 02:06:19;;;;;;;11.68;7.20;;;-0.70;99.90;;;;;;5014885;28;20239;-81
2021/01/17 02:09:09;;;;;;;15.52;8.52;;;-0.80;99.90;;;;;;5015508;28;20235;-81
2021/01/17 02:11:52;;;;;;;17.58;8.88;;;-0.80;99.90;;;;;;5015439;28;20238;-82
2021/01/17 02:14:26;;;;;;;11.43;8.57;;;-0.80;99.90;;;;;;5015412;28;20266;-82
2021/01/17 02:16:54;;;;;;;18.67;11.15;;;-0.70;99.90;;;;;;5014210;28;20243;-83
2021/01/17 02:19:28;;;;;;;16.08;10.40;;;-0.80;99.90;;;;;;5015449;28;20203;-83
2021/01/17 02:21:58;;;;;;;13.77;8.95;;;-0.80;99.90;;;;;;5015326;28;20301;-81
2021/01/17 02:24:31;;;;;;;13.38;8.43;;;-0.70;99.90;;;;;;5015428;28;20207;-84
2021/01/17 02:27:00;;;;;;;15.00;9.98;;;-0.70;99.90;;;;;;5015086;28;20239;-83
2021/01/17 02:29:28;;;;;;;14.00;9.20;;;-0.70;99.90;;;;;;5014621;28;20667;-83
2021/01/17 02:31:59;;;;;;;13.05;8.82;;;-0.70;99.90;;;;;;5013943;28;20321;-83
2021/01/17 02:34:27;;;;;;;15.50;9.63;;;-0.80;99.90;;;;;;5014157;28;20314;-83
2021/01/17 02:37:00;;;;;;;15.45;8.18;;;-0.70;99.90;;;;;;5014105;28;20246;-83
2021/01/17 02:39:33;;;;;;;12.98;8.52;;;-0.70;99.90;;;;;;5015045;28;20231;-83
2021/01/17 02:42:01;;;;;;;17.55;8.50;;;-0.70;99.90;;;;;;5014758;28;20774;-83
2021/01/17 02:44:30;;;;;;;11.20;7.68;;;-0.80;99.90;;;;;;5015213;28;20267;-85
2021/01/17 02:46:56;;;;;;;13.85;8.02;;;-0.70;99.90;;;;;;5015428;28;20758;-84
2021/01/17 02:49:22;;;;;;;14.05;9.43;;;-0.70;99.90;;;;;;5020265;28;20227;-86
2021/01/17 02:51:50;;;;;;;13.40;9.90;;;-0.70;99.90;;;;;;5016216;28;20294;-86
2021/01/17 02:54:22;;;;;;;17.95;9.82;;;-0.70;99.90;;;;;;5014988;28;20243;-88
2021/01/17 02:56:57;;;;;;;15.80;9.38;;;-0.70;99.90;;;;;;5014931;28;20239;-86
2021/01/17 02:59:32;;;;;;;17.30;10.05;;;-0.80;99.90;;;;;;5014642;28;20686;-87
2021/01/17 03:02:02;;;;;;;16.48;10.60;;;-0.80;99.90;;;;;;5012943;28;20283;-86
2021/01/17 03:04:34;;;;;;;17.88;12.18;;;-0.80;99.90;;;;;;5014172;28;20623;-87
2021/01/17 03:07:03;;;;;;;17.55;10.57;;;-0.80;99.90;;;;;;5014451;28;20748;-88
2021/01/17 03:09:30;;;;;;;17.23;13.02;;;-0.80;99.90;;;;;;5015338;28;20214;-88
2021/01/17 03:12:02;;;;;;;18.27;11.40;;;-0.80;99.90;;;;;;5013950;28;20289;-88
2021/01/17 03:14:32;;;;;;;22.02;12.00;;;-0.80;99.90;;;;;;5014326;28;20222;-91
2021/01/17 03:16:58;;;;;;;21.35;13.85;;;-0.80;99.90;;;;;;5014219;28;20302;-87
2021/01/17 03:19:25;;;;;;;19.58;10.77;;;-0.80;99.90;;;;;;5016698;28;20211;-89
2021/01/17 03:21:51;;;;;;;23.73;14.10;;;-0.80;99.90;;;;;;5015537;28;20295;-89
2021/01/17 03:24:17;;;;;;;18.75;11.60;;;-0.80;99.90;;;;;;5015603;28;20314;-88
2021/01/17 03:26:44;;;;;;;25.30;13.48;;;-0.80;99.90;;;;;;5014538;28;20235;-88
2021/01/17 03:29:10;;;;;;;21.90;11.70;;;-0.80;99.90;;;;;;5014252;28;20250;-84
2021/01/17 03:31:38;;;;;;;26.83;13.95;;;-0.80;99.90;;;;;;5012470;28;20662;-85
2021/01/17 03:34:04;;;;;;;21.83;11.80;;;-0.80;99.90;;;;;;5013821;28;20303;-85
2021/01/17 03:36:30;;;;;;;21.60;11.52;;;-0.90;99.90;;;;;;5012984;28;20290;-85
2021/01/17 03:38:57;;;;;;;25.95;12.63;;;-0.80;99.90;;;;;;5013449;28;20238;-86
2021/01/17 03:41:24;;;;;;;19.48;12.30;;;-0.90;99.90;;;;;;5013728;28;20238;-85
2021/01/17 03:43:50;;;;;;;19.30;11.75;;;-0.90;99.90;;;;;;5013383;28;20207;-84
2021/01/17 03:46:17;;;;;;;20.23;11.30;;;-0.90;99.90;;;;;;5011904;28;20303;-84
2021/01/17 03:48:44;;;;;;;20.80;12.10;;;-0.80;99.90;;;;;;5011645;28;20264;-85
2021/01/17 03:51:11;;;;;;;21.42;11.52;;;-0.80;99.90;;;;;;5012974;28;20327;-85
2021/01/17 03:53:37;;;;;;;18.65;11.13;;;-0.80;99.90;;;;;;5013523;28;20231;-83
2021/01/17 03:56:05;;;;;;;19.75;11.93;;;-0.80;99.90;;;;;;5013516;28;20290;-84
2021/01/17 03:58:31;;;;;;;21.35;12.00;;;-0.80;99.90;;;;;;5013582;28;20290;-85
2021/01/17 04:00:57;;;;;;;25.85;12.30;;;-0.80;99.90;;;;;;5012392;28;20294;-84
2021/01/17 04:03:24;;;;;;;21.38;10.85;;;-0.80;99.90;;;;;;5012803;28;20287;-85
2021/01/17 04:05:51;;;;;;;22.38;12.43;;;-0.80;99.90;;;;;;5013869;28;20282;-84
2021/01/17 04:08:17;;;;;;;16.27;9.35;;;-0.80;99.90;;;;;;5013201;28;20689;-84
2021/01/17 04:10:44;;;;;;;23.10;12.23;;;-0.80;99.90;;;;;;5013832;28;20719;-85
2021/01/17 04:13:11;;;;;;;23.17;13.07;;;-0.80;99.90;;;;;;5013353;28;20674;-86
2021/01/17 04:15:37;;;;;;;19.65;12.23;;;-0.70;99.90;;;;;;5010577;28;20295;-84
2021/01/17 04:18:04;;;;;;;19.73;12.02;;;-0.80;99.90;;;;;;5011724;28;20299;-84
2021/01/17 04:20:30;;;;;;;16.67;10.07;;;-0.70;99.90;;;;;;5013282;28;20686;-84
2021/01/17 04:23:01;;;;;;;20.45;12.48;;;-0.70;99.90;;;;;;5013108;28;20706;-85
2021/01/17 04:25:28;;;;;;;17.60;10.98;;;-0.70;99.90;;;;;;5013849;28;20199;-83
2021/01/17 04:27:55;;;;;;;19.17;11.15;;;-0.80;99.90;;;;;;5015391;28;20226;-85
2021/01/17 04:30:22;;;;;;;19.02;11.30;;;-0.80;99.90;;;;;;5013185;28;20255;-84
2021/01/17 04:32:48;;;;;;;17.08;9.27;;;-0.80;99.90;;;;;;5008411;28;20245;-85
2021/01/17 04:35:15;;;;;;;24.02;12.07;;;-0.80;99.90;;;;;;5013330;28;20625;-84
2021/01/17 04:37:43;;;;;;;16.98;10.35;;;-0.70;99.90;;;;;;5012242;28;20239;-84
2021/01/17 04:40:10;;;;;;;19.98;12.32;;;-0.70;99.90;;;;;;5013057;28;20247;-85
2021/01/17 04:42:40;;;;;;;19.25;13.65;;;-0.70;99.90;;;;;;5013157;28;20211;-84
2021/01/17 04:45:09;;;;;;;21.80;11.75;;;-0.70;99.90;;;;;;5013089;28;20203;-84
2021/01/17 04:47:37;;;;;;;20.77;11.15;;;-0.70;99.90;;;;;;5011957;28;20290;-83
2021/01/17 04:50:06;;;;;;;17.33;10.40;;;-0.70;99.90;;;;;;5012794;28;20726;-85
2021/01/17 04:52:41;;;;;;;20.90;11.52;;;-0.70;99.90;;;;;;5012697;28;20291;-87
2021/01/17 04:55:10;;;;;;;25.13;11.40;;;-0.80;99.90;;;;;;5008430;28;20204;-86
2021/01/17 04:57:45;;;;;;;18.70;9.73;;;-0.70;99.90;;;;;;5012190;28;20211;-87
2021/01/17 05:00:16;;;;;;;21.25;11.65;;;-0.70;99.90;;;;;;5012951;28;20859;-85
2021/01/17 05:02:48;;;;;;;20.55;11.32;;;-0.70;99.90;;;;;;5014219;28;20286;-85
2021/01/17 05:05:22;;;;;;;18.35;10.73;;;-0.80;99.90;;;;;;5015619;28;20643;-85
2021/01/17 05:08:29;;;;;;;19.77;11.40;;;-0.80;99.90;;;;;;5015206;28;20314;-84
2021/01/17 05:11:00;;;;;;;22.63;11.60;;;-0.70;99.90;;;;;;4995648;28;20263;-82
2021/01/17 05:13:33;;;;;;;17.98;11.00;;;-0.70;99.90;;;;;;4995693;28;20718;-81
2021/01/17 05:16:05;;;;;;;20.65;12.15;;;-0.60;99.90;;;;;;5009721;28;20243;-82
2021/01/17 05:18:31;;;;;;;14.02;9.63;;;-0.60;99.90;;;;;;5015283;28;20234;-81
2021/01/17 05:21:01;;;;;;;15.93;10.63;;;-0.70;99.90;;;;;;5015220;28;20388;-81
2021/01/17 05:23:33;;;;;;;21.48;13.07;;;-0.60;99.90;;;;;;5015290;28;20258;-81
2021/01/17 05:26:01;;;;;;;18.67;11.30;;;-0.60;99.90;;;;;;5015444;28;20199;-81
2021/01/17 05:28:29;;;;;;;16.05;10.88;;;-0.60;99.90;;;;;;5015184;28;20236;-81
2021/01/17 05:30:56;;;;;;;24.60;9.75;;;-0.60;99.90;;;;;;5012934;28;20263;-80
2021/01/17 05:33:28;;;;;;;17.55;9.55;;;-0.60;99.90;;;;;;4980405;28;20203;-81
2021/01/17 05:35:54;;;;;;;22.00;11.10;;;-0.60;99.90;;;;;;5016144;28;20273;-81
2021/01/17 05:38:21;;;;;;;21.50;11.73;;;-0.60;99.90;;;;;;5016469;28;20207;-81
2021/01/17 05:40:47;;;;;;;18.95;12.57;;;-0.60;99.90;;;;;;5033678;28;20204;-81
2021/01/17 05:43:15;;;;;;;19.50;9.80;;;-0.50;99.90;;;;;;5035400;28;20208;-81
2021/01/17 05:45:41;;;;;;;20.75;11.85;;;-0.50;99.90;;;;;;5019579;28;20737;-80
2021/01/17 05:48:08;;;;;;;19.48;11.48;;;-0.50;99.90;;;;;;5025834;28;20223;-82
2021/01/17 05:50:36;;;;;;;23.33;12.27;;;-0.50;99.90;;;;;;5017200;28;631781;-82
2021/01/17 05:53:03;;;;;;;18.48;10.80;;;-0.50;99.90;;;;;;5039613;28;20458;-81
2021/01/17 05:55:32;;;;;;;20.75;11.63;;;-0.50;99.90;;;;;;5025442;28;20239;-81
2021/01/17 05:58:21;;;;;;;21.45;11.07;;;-0.50;99.90;;;;;;5017627;28;20606;-81
2021/01/17 06:00:48;;;;;;;18.33;10.55;;;-0.50;99.90;;;;;;5014629;28;20211;-81
2021/01/17 06:03:19;;;;;;;18.77;10.30;;;-0.50;99.90;;;;;;5015859;28;20210;-81
2021/01/17 06:05:49;;;;;;;26.02;13.55;;;-0.60;99.90;;;;;;5015513;28;20667;-82
2021/01/17 06:08:19;;;;;;;25.77;12.57;;;-0.50;99.90;;;;;;5015457;28;20204;-82
2021/01/17 06:10:47;;;;;;;15.38;11.07;;;-0.60;99.90;;;;;;5014887;28;20215;-81
2021/01/17 06:13:25;;;;;;;18.25;10.75;;;-0.50;99.90;;;;;;5015631;28;20207;-81
2021/01/17 06:15:52;;;;;;;21.05;12.43;;;-0.50;99.90;;;;;;5013882;28;20730;-81
2021/01/17 06:18:22;;;;;;;24.33;11.57;;;-0.60;99.90;;;;;;5015363;28;20302;-82
2021/01/17 06:20:56;;;;;;;22.83;12.57;;;-0.60;99.90;;;;;;5015321;28;20203;-81
2021/01/17 06:23:25;;;;;;;16.02;9.98;;;-0.50;99.90;;;;;;5015299;28;20576;-82
2021/01/17 06:26:10;;;;;;;20.38;12.50;;;-0.50;99.90;;;;;;5015459;28;20291;-82
2021/01/17 06:28:42;;;;;;;21.50;11.10;;;-0.60;99.90;;;;;;5015283;28;20210;-81
2021/01/17 06:31:09;;;;;;;21.35;9.73;;;-0.50;99.90;;;;;;5013749;28;20235;-81
2021/01/17 06:33:36;;;;;;;21.05;12.90;;;-0.50;99.90;;;;;;5015317;28;20203;-81
2021/01/17 06:36:14;;;;;;;16.92;10.52;;;-0.50;99.90;;;;;;5015303;28;20299;-81
2021/01/17 06:38:41;;;;;;;14.82;9.48;;;-0.50;99.90;;;;;;5015403;28;20292;-81
2021/01/17 06:41:08;;;;;;;22.17;12.57;;;-0.50;99.90;;;;;;5016574;28;20294;-81
2021/01/17 06:43:41;;;;;;;14.77;9.93;;;-0.50;99.90;;;;;;5020244;28;20199;-81
2021/01/17 06:46:08;;;;;;;21.92;10.57;;;-0.50;99.90;;;;;;5035120;28;20215;-81
2021/01/17 06:48:34;;;;;;;18.23;10.90;;;-0.50;99.90;;;;;;5036282;28;20234;-81
2021/01/17 06:51:16;;;;;;;22.13;11.85;;;-0.40;99.90;;;;;;5031340;28;20235;-81
2021/01/17 06:53:52;;;;;;;21.55;12.07;;;-0.40;99.90;;;;;;5015523;28;20204;-81
2021/01/17 06:56:19;;;;;;;21.23;11.23;;;-0.40;99.90;;;;;;5014783;28;20238;-81
2021/01/17 06:58:47;;;;;;;23.17;11.68;;;-0.40;99.90;;;;;;5014201;28;20203;-81
2021/01/17 07:01:15;;;;;;;22.60;13.35;;;-0.40;99.90;;;;;;5013807;28;20254;-81
2021/01/17 07:03:53;;;;;;;21.05;12.38;;;-0.50;99.90;;;;;;5014573;28;20204;-82
2021/01/17 07:06:46;;;;;;;24.48;11.60;;;-0.50;99.90;;;;;;5014856;28;20731;-82
2021/01/17 07:09:25;;;;;;;20.90;11.15;;;-0.40;99.90;;;;;;5014126;28;20286;-82
2021/01/17 07:12:00;;;;;;;22.17;12.73;;;-0.40;99.90;;;;;;5013112;28;20322;-83
2021/01/17 07:14:30;;;;;;;18.38;10.80;;;-0.40;99.90;;;;;;5014199;28;20778;-83
2021/01/17 07:16:58;;;;;;;23.48;12.10;;;-0.40;99.90;;;;;;5012663;28;20200;-83
2021/01/17 07:19:32;;;;;;;22.65;12.13;;;-0.40;99.90;;;;;;5014125;28;20238;-83
2021/01/17 07:22:04;;;;;;;23.85;12.38;;;-0.40;99.90;;;;;;5013956;28;20235;-82
2021/01/17 07:24:33;;;;;;;21.48;11.15;;;-0.30;99.90;;;;;;5014183;28;20210;-82
2021/01/17 07:27:18;;;;;;;21.88;11.32;;;-0.30;99.90;;;;;;5010619;28;20215;-82
2021/01/17 07:29:52;;;;;;;25.75;12.07;;;-0.30;99.90;;;;;;5013839;28;20291;-82
2021/01/17 07:32:45;;;;;;;17.95;10.45;;;-0.30;99.90;;;;;;5012345;28;20235;-84
2021/01/17 07:35:12;;;;;;;18.67;10.60;;;-0.30;99.90;;;;;;5011567;28;20290;-83
2021/01/17 07:37:42;;;;;;;19.45;11.40;;;-0.20;99.90;;;;;;5001272;28;20282;-84
2021/01/17 07:40:10;;;;;;;30.45;13.57;;;-0.30;99.90;;;;;;4994303;28;20362;-84
2021/01/17 07:42:38;;;;;;;23.60;10.85;;;-0.20;99.90;;;;;;4994196;28;20251;-83
2021/01/17 07:45:19;;;;;;;17.13;10.50;;;-0.20;99.90;;;;;;4994967;28;20239;-85
2021/01/17 07:47:46;;;;;;;23.15;12.98;;;-0.20;99.90;;;;;;4994013;28;20337;-85
2021/01/17 07:50:14;;;;;;;23.27;12.60;;;-0.10;99.90;;;;;;4996030;28;20277;-87
2021/01/17 07:52:47;;;;;;;19.05;12.40;;;-0.10;99.90;;;;;;5000469;28;20259;-90
2021/01/17 07:55:15;;;;;;;20.67;12.88;;;-0.10;99.90;;;;;;4994404;28;20259;-85
2021/01/17 07:57:46;;;;;;;20.17;12.40;;;0.40;99.90;;;;;;4991436;28;20242;-86
2021/01/17 08:00:14;;;;;;;17.90;11.30;;;0.40;99.90;;;;;;4995211;28;20212;-92
2021/01/17 08:02:48;;;;;;;16.65;11.13;;;0.30;99.90;;;;;;4997326;28;20239;-84
2021/01/17 08:05:14;;;;;;;21.20;12.18;;;0.30;99.90;;;;;;5020534;28;20220;-90
2021/01/17 08:07:41;;;;;;;19.48;11.40;;;0.20;99.90;;;;;;5028853;28;20211;-84
2021/01/17 08:10:08;;;;;;;23.80;13.10;;;0.20;99.90;;;;;;5024781;28;20237;-89
2021/01/17 08:12:42;;;;;;;16.95;12.40;;;0.40;99.90;;;;;;5022791;28;20263;-90
2021/01/17 08:15:23;;;;;;;25.00;12.75;;;0.40;99.90;;;;;;5019009;28;20290;-89
2021/01/17 08:17:51;;;;;;;19.67;13.82;;;0.40;99.90;;;;;;5012203;28;20242;-89
2021/01/17 08:20:39;;;;;;;22.95;13.55;;;0.40;99.90;;;;;;4978881;28;20208;-89
2021/01/17 08:23:11;;;;;;;20.30;13.23;;;0.40;99.90;;;;;;5008236;28;20685;-88
2021/01/17 08:25:56;;;;;;;28.30;13.75;;;0.30;99.90;;;;;;5012881;28;20749;-85
2021/01/17 08:28:47;;;;;;;20.70;13.35;;;0.40;99.90;;;;;;5012631;28;20585;-83
2021/01/17 08:31:42;;;;;;;25.88;11.85;;;0.40;99.90;;;;;;5011504;28;20777;-84
2021/01/17 08:34:17;;;;;;;27.13;13.75;;;0.50;99.90;;;;;;5013555;28;20280;-84
2021/01/17 08:36:46;;;;;;;21.90;12.77;;;0.50;99.90;;;;;;5017094;28;20675;-83
2021/01/17 08:39:13;;;;;;;18.98;11.35;;;0.60;99.90;;;;;;5016539;28;20207;-83
2021/01/17 08:41:40;;;;;;;23.80;14.40;;;0.60;99.90;;;;;;5016649;28;20786;-84
2021/01/17 08:44:11;;;;;;;22.80;13.00;;;0.60;99.90;;;;;;5016479;28;20230;-83
2021/01/17 08:46:40;;;;;;;23.63;15.20;;;0.80;99.90;;;;;;5015360;28;20204;-83
2021/01/17 08:49:07;;;;;;;21.25;13.20;;;0.80;99.90;;;;;;5016549;28;20298;-84
2021/01/17 08:51:34;;;;;;;19.58;14.15;;;0.80;99.90;;;;;;5016532;28;20326;-85
2021/01/17 08:54:25;;;;;;;22.30;12.20;;;0.90;99.90;;;;;;5017035;28;20349;-84
2021/01/17 08:56:54;;;;;;;21.05;12.55;;;1.00;99.90;;;;;;5014802;28;20199;-87
2021/01/17 08:59:36;;;;;;;23.60;13.75;;;1.10;99.90;;;;;;5016078;28;20294;-85
2021/01/17 09:02:03;;;;;;;26.00;14.10;;;1.10;99.90;;;;;;5016850;28;20242;-89
2021/01/17 09:04:30;;;;;;;21.02;12.45;;;1.20;99.90;;;;;;5017661;28;20790;-88
2021/01/17 09:06:59;;;;;;;17.88;12.90;;;1.10;99.90;;;;;;5017645;28;20234;-89
2021/01/17 09:09:26;;;;;;;19.73;14.07;;;1.10;99.90;;;;;;5015841;28;20290;-89
2021/01/17 09:11:53;;;;;;;22.80;14.90;;;1.20;99.90;;;;;;5017015;28;20231;-88
2021/01/17 09:14:28;;;;;;;25.45;14.70;;;1.30;99.90;;;;;;5016083;28;20810;-87
2021/01/17 09:17:08;;;;;;;26.58;14.90;;;1.40;99.90;;;;;;5015349;28;20295;-90
2021/01/17 09:19:36;;;;;;;18.83;11.10;;;1.30;99.90;;;;;;5018324;28;20215;-89
2021/01/17 09:22:05;;;;;;;20.45;12.52;;;1.10;99.90;;;;;;5020825;28;20246;-89
2021/01/17 09:24:39;;;;;;;30.25;15.50;;;1.10;99.90;;;;;;5023725;28;20191;-91
2021/01/17 09:27:06;;;;;;;22.17;14.02;;;1.10;99.90;;;;;;5022198;28;20207;-92
2021/01/17 09:29:34;;;;;;;18.73;12.85;;;1.30;99.90;;;;;;5025678;28;20651;-90
2021/01/17 09:32:06;;;;;;;21.13;11.98;;;1.40;99.90;;;;;;5025919;28;20230;-88
2021/01/17 09:34:35;;;;;;;25.90;14.18;;;1.30;99.90;;;;;;5018104;28;20250;-87
2021/01/17 09:37:07;;;;;;;31.02;14.88;;;1.50;99.90;;;;;;5016863;28;20919;-85
2021/01/17 09:39:36;;;;;;;27.90;15.88;;;1.50;99.90;;;;;;5016682;28;20262;-87
2021/01/17 09:42:04;;;;;;;25.67;13.80;;;1.50;99.90;;;;;;5019514;28;20246;-87
2021/01/17 09:44:31;;;;;;;25.52;14.02;;;1.50;99.90;;;;;;5017295;28;20631;-86
2021/01/17 09:46:59;;;;;;;22.95;13.77;;;1.40;99.90;;;;;;5016219;28;20678;-84
2021/01/17 09:49:28;;;;;;;22.17;13.23;;;1.40;99.90;;;;;;5016267;28;20227;-84
2021/01/17 09:51:56;;;;;;;23.50;14.00;;;1.40;99.90;;;;;;5018051;28;20684;-85
2021/01/17 09:54:25;;;;;;;22.98;12.23;;;1.40;99.90;;;;;;5024851;28;20227;-85
2021/01/17 09:56:51;;;;;;;19.02;12.77;;;1.50;99.90;;;;;;5030957;28;20263;-86
2021/01/17 09:59:21;;;;;;;22.27;12.43;;;1.70;99.90;;;;;;5026225;28;20243;-87
2021/01/17 10:01:50;;;;;;;25.17;16.70;;;1.60;99.90;;;;;;5036173;28;20239;-89
2021/01/17 10:04:27;;;;;;;20.83;13.43;;;1.90;99.90;;;;;;5039923;28;20196;-88
2021/01/17 10:06:56;;;;;;;20.73;12.35;;;1.90;99.90;;;;;;5039883;28;20214;-87
2021/01/17 10:09:24;;;;;;;22.20;13.35;;;2.00;99.90;;;;;;5039638;28;20200;-89
2021/01/17 10:11:59;;;;;;;21.38;13.27;;;2.10;99.90;;;;;;5037653;28;20216;-91
2021/01/17 10:14:31;;;;;;;21.83;14.23;;;2.30;99.90;;;;;;5019648;28;20641;-88
2021/01/17 10:16:58;;;;;;;19.33;13.57;;;2.20;99.90;;;;;;5014738;28;20246;-88
2021/01/17 10:19:27;;;;;;;16.23;12.45;;;2.10;99.90;;;;;;5016080;28;20246;-87
2021/01/17 10:21:53;;;;;;;18.33;12.88;;;2.00;99.90;;;;;;5024101;28;20242;-90
2021/01/17 10:24:26;;;;;;;22.13;14.95;;;2.00;99.90;;;;;;5036946;28;20192;-88
2021/01/17 10:26:57;;;;;;;17.88;11.95;;;2.10;99.90;;;;;;5038429;28;20211;-89
2021/01/17 10:29:27;;;;;;;22.60;14.18;;;2.30;99.90;;;;;;5037380;28;20211;-89
2021/01/17 10:31:59;;;;;;;19.73;13.70;;;2.30;99.90;;;;;;5034726;28;20247;-90
2021/01/17 10:34:28;;;;;;;24.42;12.98;;;2.30;99.90;;;;;;5033463;28;20223;-91
2021/01/17 10:37:00;;;;;;;18.83;12.30;;;2.20;99.90;;;;;;5023895;28;20239;-92
2021/01/17 10:39:28;;;;;;;19.58;11.52;;;2.10;99.90;;;;;;5028011;28;20204;-85
2021/01/17 10:42:10;;;;;;;16.58;12.27;;;2.00;99.90;;;;;;4995518;28;20231;-85
2021/01/17 10:44:48;;;;;;;22.08;13.00;;;2.10;99.90;;;;;;4994906;28;20208;-85
2021/01/17 10:47:31;;;;;;;17.77;11.73;;;2.10;99.90;;;;;;4997313;28;20231;-85
2021/01/17 10:50:00;;;;;;;16.75;11.73;;;2.10;99.90;;;;;;5014256;28;20302;-87
2021/01/17 10:52:31;;;;;;;22.05;12.57;;;2.30;99.90;;;;;;5013755;28;20243;-84
2021/01/17 10:55:01;;;;;;;18.65;12.20;;;2.10;99.90;;;;;;5013576;28;20298;-84
2021/01/17 10:57:29;;;;;;;18.92;12.27;;;2.20;99.90;;;;;;5013532;28;20243;-86
2021/01/17 10:59:57;;;;;;;18.25;12.48;;;2.20;99.90;;;;;;5014803;28;20245;-85
2021/01/17 11:02:24;;;;;;;20.60;14.13;;;2.30;99.90;;;;;;5013389;28;20234;-88
2021/01/17 11:04:51;;;;;;;23.50;14.30;;;2.20;99.90;;;;;;5016911;28;20241;-88
2021/01/17 11:07:27;;;;;;;22.98;14.40;;;2.10;99.90;;;;;;4998752;28;20779;-86
2021/01/17 11:09:53;;;;;;;21.98;16.48;;;2.00;99.90;;;;;;4995876;28;20252;-88
2021/01/17 11:12:34;;;;;;;23.98;14.40;;;1.90;99.90;;;;;;5003834;28;20270;-88
2021/01/17 11:15:09;;;;;;;22.98;14.35;;;1.80;99.90;;;;;;5005570;28;20210;-88
2021/01/17 11:17:36;;;;;;;22.40;13.68;;;2.00;99.90;;;;;;4996969;28;20235;-86
2021/01/17 11:20:04;;;;;;;26.75;15.52;;;2.10;99.90;;;;;;4997199;28;20569;-90
2021/01/17 11:22:33;;;;;;;25.60;16.27;;;2.10;99.90;;;;;;4996211;28;20282;-84
2021/01/17 11:24:59;;;;;;;21.65;14.27;;;2.20;99.90;;;;;;4994116;28;20842;-83
2021/01/17 11:27:35;;;;;;;22.65;14.35;;;2.20;99.90;;;;;;4993963;28;20723;-85
2021/01/17 11:30:03;;;;;;;23.58;16.55;;;2.40;99.90;;;;;;4996792;28;20207;-85
2021/01/17 11:32:32;;;;;;;29.23;16.17;;;2.40;99.90;;;;;;5011814;28;20254;-84
2021/01/17 11:34:59;;;;;;;22.00;12.50;;;2.50;99.90;;;;;;5012982;28;20277;-84
2021/01/17 11:37:33;;;;;;;15.45;12.30;;;2.40;99.90;;;;;;5008284;28;20302;-83
2021/01/17 11:40:08;;;;;;;19.67;13.15;;;2.60;99.90;;;;;;5012353;28;20361;-85
2021/01/17 11:42:37;;;;;;;14.20;10.02;;;3.00;99.90;;;;;;5013536;28;20238;-84
2021/01/17 11:45:16;;;;;;;17.77;12.55;;;3.10;99.90;;;;;;5013380;28;20286;-83
2021/01/17 11:47:43;;;;;;;16.30;11.52;;;2.80;99.90;;;;;;5012122;28;20290;-84
2021/01/17 11:50:17;;;;;;;24.90;15.50;;;2.70;99.90;;;;;;5010995;28;20219;-84
2021/01/17 11:52:54;;;;;;;20.13;13.02;;;2.90;99.90;;;;;;5013080;28;20261;-83
2021/01/17 11:55:21;;;;;;;19.23;12.80;;;2.70;99.90;;;;;;5013228;28;20198;-84
2021/01/17 11:57:48;;;;;;;18.67;12.40;;;2.60;99.90;;;;;;5013180;28;20231;-86
2021/01/17 12:00:16;;;;;;;18.60;11.63;;;3.20;99.90;;;;;;5012612;28;20290;-90
2021/01/17 12:02:42;;;;;;;17.50;10.57;;;3.10;99.90;;;;;;5012195;28;20718;-85
2021/01/17 12:05:15;;;;;;;15.38;10.18;;;3.00;99.90;;;;;;5013131;28;20266;-84
2021/01/17 12:07:56;;;;;;;23.88;14.35;;;2.80;99.90;;;;;;5012854;28;20210;-90
2021/01/17 12:10:23;;;;;;;18.38;11.82;;;2.80;99.90;;;;;;5013017;28;20215;-86
2021/01/17 12:12:50;;;;;;;18.38;13.13;;;2.70;99.90;;;;;;5012805;28;20354;-91
2021/01/17 12:15:19;;;;;;;22.60;12.45;;;2.50;99.90;;;;;;5012984;28;20673;-88
2021/01/17 12:17:45;;;;;;;20.48;14.10;;;2.40;99.90;;;;;;5012006;28;20664;-86
2021/01/17 12:20:12;;;;;;;22.38;13.38;;;2.40;99.90;;;;;;5012860;28;20644;-87
2021/01/17 12:22:38;;;;;;;20.15;12.00;;;2.30;99.90;;;;;;5012978;28;20257;-87
2021/01/17 12:25:06;;;;;;;18.90;11.85;;;2.30;99.90;;;;;;5014350;28;20207;-88
2021/01/17 12:27:32;;;;;;;22.60;13.40;;;2.20;99.90;;;;;;5012680;28;20294;-86
2021/01/17 12:30:10;;;;;;;23.20;15.93;;;2.30;99.90;;;;;;5013986;28;20307;-85
2021/01/17 12:32:37;;;;;;;24.55;14.80;;;2.30;99.90;;;;;;5008393;28;20238;-88
2021/01/17 12:35:04;;;;;;;20.02;13.35;;;2.30;99.90;;;;;;5012970;28;20290;-86
2021/01/17 12:37:30;;;;;;;20.73;14.07;;;2.40;99.90;;;;;;5012078;28;20290;-86
2021/01/17 12:39:57;;;;;;;19.15;13.60;;;2.30;99.90;;;;;;5012743;28;20659;-88
2021/01/17 12:42:23;;;;;;;20.60;12.60;;;2.30;99.90;;;;;;5013156;28;20652;-87
2021/01/17 12:44:49;;;;;;;24.25;14.57;;;2.40;99.90;;;;;;5012846;28;20726;-87
2021/01/17 12:47:17;;;;;;;20.30;12.27;;;2.30;99.90;;;;;;5012536;28;20952;-86